createdAt,value
2023-03-15T00:00:15.905Z,1.40
2023-03-15T00:03:10.123Z,1.35
2023-03-15T00:06:08.724Z,1.13
2023-03-15T00:08:53.534Z,1.50
2023-03-15T00:11:46.696Z,1.40
2023-03-15T00:14:33.938Z,0.80
2023-03-15T00:17:25.708Z,1.98
2023-03-15T00:20:12.207Z,1.60
2023-03-15T00:23:03.701Z,1.15
2023-03-15T00:25:50.559Z,1.53
2023-03-15T00:28:42.740Z,1.58
2023-03-15T00:31:30.690Z,1.60
2023-03-15T00:34:21.705Z,1.85
2023-03-15T00:37:15.792Z,2.10
2023-03-15T00:40:00.692Z,1.77
2023-03-15T00:42:56.705Z,0.90
2023-03-15T00:45:41.654Z,2.30
2023-03-15T00:48:33.729Z,1.13
2023-03-15T00:51:22.812Z,1.83
2023-03-15T00:54:19.689Z,1.70
2023-03-15T00:57:07.799Z,1.65
2023-03-15T01:00:01.693Z,2.00
2023-03-15T01:02:54.965Z,1.70
2023-03-15T01:05:46.778Z,2.10
2023-03-15T01:08:37.718Z,2.40
2023-03-15T01:11:35.043Z,2.55
2023-03-15T01:14:20.229Z,2.13
2023-03-15T01:17:13.701Z,2.63
2023-03-15T01:20:00.707Z,2.28
2023-03-15T01:22:52.711Z,2.50
2023-03-15T01:25:40.368Z,2.40
2023-03-15T01:28:34.710Z,2.55
2023-03-15T01:31:21.810Z,2.67
2023-03-15T01:34:15.730Z,1.60
2023-03-15T01:37:02.677Z,2.13
2023-03-15T01:39:55.703Z,2.85
2023-03-15T01:43:11.500Z,2.63
2023-03-15T01:46:05.727Z,2.38
2023-03-15T01:49:06.708Z,2.15
2023-03-15T01:51:59.958Z,2.70
2023-03-15T01:54:57.719Z,2.50
2023-03-15T01:57:52.364Z,2.35
2023-03-15T02:00:47.747Z,2.03
2023-03-15T02:04:02.557Z,2.28
2023-03-15T02:06:55.932Z,1.83
2023-03-15T02:10:00.718Z,1.50
2023-03-15T02:12:51.235Z,2.03
2023-03-15T02:15:44.723Z,2.35
2023-03-15T02:18:35.645Z,1.25
2023-03-15T02:21:54.674Z,2.07
2023-03-15T02:25:01.241Z,1.67
2023-03-15T02:27:52.736Z,1.38
2023-03-15T02:30:38.029Z,1.80
2023-03-15T02:33:34.932Z,1.88
2023-03-15T02:36:29.746Z,1.57
2023-03-15T02:39:16.770Z,1.80
2023-03-15T02:42:12.451Z,1.73
2023-03-15T02:44:58.087Z,1.70
2023-03-15T02:47:53.809Z,1.63
2023-03-15T02:50:39.108Z,1.60
2023-03-15T02:53:35.728Z,1.65
2023-03-15T02:56:21.062Z,1.30
2023-03-15T02:59:14.741Z,1.55
2023-03-15T03:01:59.901Z,2.20
2023-03-15T03:04:51.751Z,1.53
2023-03-15T03:07:45.063Z,1.20
2023-03-15T03:10:36.734Z,1.27
2023-03-15T03:13:28.728Z,1.42
2023-03-15T03:16:19.838Z,1.20
2023-03-15T03:19:10.733Z,0.60
2023-03-15T03:22:00.141Z,0.45
2023-03-15T03:24:54.774Z,0.80
2023-03-15T03:27:40.778Z,0.30
2023-03-15T03:30:31.760Z,0.43
2023-03-15T03:33:16.702Z,0.50
2023-03-15T03:36:10.780Z,0.40
2023-03-15T03:39:03.732Z,0.75
2023-03-15T03:41:52.077Z,0.50
2023-03-15T03:44:43.731Z,0.43
2023-03-15T03:47:35.730Z,0.60
2023-03-15T03:50:27.749Z,0.73
2023-03-15T03:53:18.738Z,0.75
2023-03-15T03:56:15.007Z,0.88
2023-03-15T03:59:06.736Z,0.80
2023-03-15T04:01:51.719Z,0.60
2023-03-15T04:04:44.619Z,0.70
2023-03-15T04:07:38.021Z,1.05
2023-03-15T04:10:32.734Z,0.85
2023-03-15T04:13:17.940Z,0.77
2023-03-15T04:16:15.544Z,1.10
2023-03-15T04:19:00.801Z,1.00
2023-03-15T04:21:55.718Z,0.88
2023-03-15T04:24:42.845Z,0.90
2023-03-15T04:27:36.732Z,1.40
2023-03-15T04:30:26.926Z,1.10
2023-03-15T04:33:18.760Z,1.20
2023-03-15T04:36:09.769Z,1.17
2023-03-15T04:39:11.749Z,1.10
2023-03-15T04:42:03.721Z,1.10
2023-03-15T04:44:48.528Z,1.23
2023-03-15T04:47:39.733Z,1.23
2023-03-15T04:50:31.793Z,0.63
2023-03-15T04:53:22.745Z,0.52
2023-03-15T04:56:14.757Z,1.25
2023-03-15T04:59:02.562Z,1.03
2023-03-15T05:01:53.799Z,0.60
2023-03-15T05:04:59.757Z,0.88
2023-03-15T05:07:51.754Z,0.88
2023-03-15T05:10:36.973Z,1.00
2023-03-15T05:13:33.743Z,0.97
2023-03-15T05:16:18.824Z,0.95
2023-03-15T05:19:12.951Z,1.00
2023-03-15T05:21:57.957Z,0.88
2023-03-15T05:24:50.978Z,0.90
2023-03-15T05:27:36.981Z,0.60
2023-03-15T05:30:28.753Z,0.70
2023-03-15T05:33:23.970Z,0.90
2023-03-15T05:36:21.772Z,0.90
2023-03-15T05:39:15.745Z,0.80
2023-03-15T05:42:08.780Z,0.70
2023-03-15T05:44:54.053Z,1.02
2023-03-15T05:47:45.764Z,1.02
2023-03-15T05:50:36.033Z,1.20
2023-03-15T05:53:27.735Z,1.35
2023-03-15T05:56:12.812Z,1.23
2023-03-15T05:59:05.967Z,1.30
2023-03-15T06:01:57.750Z,1.80
2023-03-15T06:05:02.740Z,1.42
2023-03-15T06:07:53.775Z,1.70
2023-03-15T06:10:44.329Z,1.60
2023-03-15T06:13:35.751Z,1.80
2023-03-15T06:16:20.572Z,2.17
2023-03-15T06:19:12.720Z,1.98
2023-03-15T06:21:57.919Z,2.13
2023-03-15T06:24:48.763Z,2.50
2023-03-15T06:27:33.769Z,2.55
2023-03-15T06:30:26.757Z,2.67
2023-03-15T06:33:14.557Z,2.40
2023-03-15T06:36:07.102Z,2.28
2023-03-15T06:39:00.735Z,2.90
2023-03-15T06:41:45.769Z,2.35
2023-03-15T06:44:41.227Z,2.90
2023-03-15T06:47:29.452Z,2.78
2023-03-15T06:50:20.745Z,3.00
2023-03-15T06:53:12.761Z,2.83
2023-03-15T06:56:07.052Z,2.85
2023-03-15T06:58:55.773Z,2.88
2023-03-15T07:01:49.795Z,3.45
2023-03-15T07:04:40.741Z,2.88
2023-03-15T07:07:32.969Z,2.67
2023-03-15T07:10:18.088Z,2.97
2023-03-15T07:13:13.765Z,2.95
2023-03-15T07:15:58.737Z,3.50
2023-03-15T07:18:49.794Z,3.42
2023-03-15T07:21:41.765Z,3.80
2023-03-15T07:24:29.410Z,4.05
2023-03-15T07:27:21.758Z,4.20
2023-03-15T07:30:09.786Z,3.88
2023-03-15T07:33:00.884Z,3.92
2023-03-15T07:35:46.143Z,3.73
2023-03-15T07:38:43.032Z,3.72
2023-03-15T07:41:34.764Z,4.15
2023-03-15T07:44:25.777Z,3.70
2023-03-15T07:47:10.809Z,3.85
2023-03-15T07:50:04.768Z,3.83
2023-03-15T07:52:55.763Z,3.42
2023-03-15T07:55:40.661Z,4.13
2023-03-15T07:58:32.761Z,4.43
2023-03-15T08:01:20.048Z,4.25
2023-03-15T08:04:11.798Z,4.50
2023-03-15T08:07:02.963Z,4.30
2023-03-15T08:09:54.761Z,4.15
2023-03-15T08:12:48.764Z,3.97
2023-03-15T08:15:42.763Z,4.05
2023-03-15T08:18:35.783Z,3.83
2023-03-15T08:21:30.756Z,3.63
2023-03-15T08:24:15.597Z,3.97
2023-03-15T08:27:09.773Z,4.40
2023-03-15T08:29:57.023Z,4.85
2023-03-15T08:32:51.792Z,4.90
2023-03-15T08:35:36.647Z,4.68
2023-03-15T08:38:27.782Z,4.57
2023-03-15T08:41:19.771Z,4.13
2023-03-15T08:44:04.556Z,4.13
2023-03-15T08:46:56.826Z,3.97
2023-03-15T08:49:41.597Z,3.95
2023-03-15T08:52:38.786Z,4.55
2023-03-15T08:55:25.894Z,3.95
2023-03-15T08:58:19.766Z,4.47
2023-03-15T09:01:07.353Z,5.27
2023-03-15T09:03:58.808Z,5.03
2023-03-15T09:06:49.863Z,5.60
2023-03-15T09:09:42.023Z,5.85
2023-03-15T09:12:28.201Z,5.50
2023-03-15T09:15:23.775Z,5.60
2023-03-15T09:18:08.555Z,5.05
2023-03-15T09:20:59.769Z,4.20
2023-03-15T09:23:44.591Z,3.60
2023-03-15T09:26:38.773Z,4.40
2023-03-15T09:29:29.780Z,3.97
2023-03-15T09:32:23.857Z,3.55
2023-03-15T09:35:12.777Z,5.03
2023-03-15T09:38:07.786Z,5.20
2023-03-15T09:40:58.506Z,5.63
2023-03-15T09:44:04.780Z,5.40
2023-03-15T09:47:14.792Z,4.85
2023-03-15T09:50:12.793Z,4.55
2023-03-15T09:53:12.783Z,5.30
2023-03-15T09:56:06.811Z,6.03
2023-03-15T09:59:06.569Z,5.80
2023-03-15T10:01:55.913Z,5.95
2023-03-15T10:04:50.794Z,6.25
2023-03-15T10:07:35.971Z,7.45
2023-03-15T10:10:45.792Z,4.80
2023-03-15T10:14:18.989Z,7.03
2023-03-15T10:17:12.883Z,5.95
2023-03-15T10:20:10.815Z,7.05
2023-03-15T10:23:03.072Z,4.53
2023-03-15T10:25:58.998Z,6.57
2023-03-15T10:28:44.780Z,5.90
2023-03-15T10:31:45.166Z,5.03
2023-03-15T10:34:30.658Z,4.82
2023-03-15T10:37:21.792Z,4.90
2023-03-15T10:40:08.642Z,4.93
2023-03-15T10:43:00.803Z,5.47
2023-03-15T10:46:12.839Z,5.57
2023-03-15T10:49:16.809Z,4.18
2023-03-15T10:52:02.438Z,4.20
2023-03-15T10:54:58.767Z,4.43
2023-03-15T10:58:04.824Z,5.23
2023-03-15T11:01:00.762Z,4.90
2023-03-15T11:04:04.792Z,4.53
2023-03-15T11:06:56.942Z,4.68
2023-03-15T11:10:26.800Z,4.70
2023-03-15T11:13:29.821Z,4.33
2023-03-15T11:16:14.920Z,4.53
2023-03-15T11:19:20.804Z,4.15
2023-03-15T11:22:13.802Z,3.47
2023-03-15T11:24:59.050Z,3.72
2023-03-15T11:27:52.873Z,3.17
2023-03-15T11:30:39.494Z,3.15
2023-03-15T11:34:00.829Z,3.90
2023-03-15T11:37:07.178Z,3.70
2023-03-15T11:40:11.622Z,4.25
2023-03-15T11:43:07.814Z,4.03
2023-03-15T11:45:58.568Z,4.18
2023-03-15T11:48:57.822Z,3.03
2023-03-15T11:51:43.427Z,2.88
2023-03-15T11:54:38.870Z,2.45
2023-03-15T11:57:49.828Z,2.70
2023-03-15T12:00:34.571Z,2.88
2023-03-15T12:03:40.886Z,2.60
2023-03-15T12:06:44.886Z,2.25
2023-03-15T12:09:42.813Z,2.67
2023-03-15T12:12:27.941Z,2.37
2023-03-15T12:15:24.964Z,2.65
2023-03-15T12:18:22.838Z,2.72
2023-03-15T12:21:18.836Z,2.90
2023-03-15T12:24:14.153Z,2.70
2023-03-15T12:27:14.843Z,2.20
2023-03-15T12:30:02.121Z,2.50
2023-03-15T12:32:58.846Z,1.88
2023-03-15T12:35:46.009Z,1.98
2023-03-15T12:38:49.847Z,2.00
2023-03-15T12:41:45.839Z,1.80
2023-03-15T12:44:39.333Z,2.40
2023-03-15T12:47:30.837Z,1.90
2023-03-15T12:50:47.837Z,1.90
2023-03-15T12:53:45.875Z,1.98
2023-03-15T12:56:37.658Z,1.20
2023-03-15T12:59:39.846Z,1.30
2023-03-15T13:02:43.706Z,1.30
2023-03-15T13:05:45.202Z,1.65
2023-03-15T13:09:27.831Z,1.30
2023-03-15T13:12:51.610Z,1.20
2023-03-15T13:15:50.825Z,1.27
2023-03-15T13:18:58.842Z,0.95
2023-03-15T13:22:14.715Z,0.80
2023-03-15T13:25:23.852Z,0.57
2023-03-15T13:28:24.367Z,0.50
2023-03-15T13:31:33.882Z,0.63
2023-03-15T13:34:31.839Z,1.20
2023-03-15T13:37:30.897Z,0.60
2023-03-15T13:40:24.970Z,0.32
2023-03-15T13:43:17.857Z,1.03
2023-03-15T13:46:03.965Z,0.98
2023-03-15T13:48:58.830Z,0.60
2023-03-15T13:51:51.849Z,0.63
2023-03-15T13:54:44.046Z,0.95
2023-03-15T13:57:29.310Z,0.90
2023-03-15T14:00:23.853Z,0.80
2023-03-15T14:03:16.653Z,1.00
2023-03-15T14:06:14.879Z,0.90
2023-03-15T14:09:11.523Z,0.68
2023-03-15T14:12:11.869Z,1.07
2023-03-15T14:14:59.219Z,1.05
2023-03-15T14:18:06.878Z,1.00
2023-03-15T14:21:24.856Z,0.90
2023-03-15T14:24:40.859Z,1.00
2023-03-15T14:27:30.603Z,0.70
2023-03-15T14:30:33.874Z,0.75
2023-03-15T14:33:48.617Z,0.80
2023-03-15T14:36:41.752Z,0.73
2023-03-15T14:39:48.865Z,0.60
2023-03-15T14:42:33.918Z,0.70
2023-03-15T14:45:28.862Z,0.65
2023-03-15T14:48:23.223Z,0.70
2023-03-15T14:51:23.870Z,0.60
2023-03-15T14:54:13.397Z,0.80
2023-03-15T14:57:05.868Z,0.50
2023-03-15T14:59:57.857Z,0.50
2023-03-15T15:02:44.675Z,0.98
2023-03-15T15:05:37.854Z,0.50
2023-03-15T15:08:23.133Z,0.63
2023-03-15T15:11:15.886Z,0.70
2023-03-15T15:14:07.001Z,0.40
2023-03-15T15:16:52.232Z,0.70
2023-03-15T15:19:45.110Z,0.70
2023-03-15T15:22:37.875Z,0.60
2023-03-15T15:25:34.941Z,0.70
2023-03-15T15:28:33.170Z,0.55
2023-03-15T15:31:30.887Z,0.60
2023-03-15T15:34:15.784Z,0.60
2023-03-15T15:37:07.890Z,0.60
2023-03-15T15:39:52.902Z,0.70
2023-03-15T15:42:43.874Z,0.80
2023-03-15T15:45:35.855Z,0.60
2023-03-15T15:48:20.920Z,0.70
2023-03-15T15:51:26.872Z,0.60
2023-03-15T15:54:26.094Z,0.70
2023-03-15T15:57:18.875Z,0.80
2023-03-15T16:00:12.284Z,0.60
2023-03-15T16:03:04.903Z,0.60
2023-03-15T16:06:02.907Z,0.50
2023-03-15T16:08:57.942Z,0.90
2023-03-15T16:11:43.204Z,0.75
2023-03-15T16:14:34.893Z,0.40
2023-03-15T16:17:22.491Z,0.75
2023-03-15T16:20:15.892Z,0.50
2023-03-15T16:23:01.177Z,0.50
2023-03-15T16:25:55.889Z,0.50
2023-03-15T16:28:41.517Z,0.50
2023-03-15T16:34:46.881Z,0.52
2023-03-15T16:37:40.881Z,0.53
2023-03-15T16:40:35.054Z,0.70
2023-03-15T16:43:28.898Z,0.70
2023-03-15T16:46:25.106Z,0.75
2023-03-15T16:49:10.366Z,0.68
2023-03-15T16:52:02.909Z,0.97
2023-03-15T16:54:56.882Z,0.47
2023-03-15T16:57:41.889Z,0.80
2023-03-15T17:00:34.905Z,0.60
2023-03-15T17:04:06.941Z,0.52
2023-03-15T17:07:11.906Z,0.70
2023-03-15T17:09:57.409Z,0.65
2023-03-15T17:12:49.902Z,0.50
2023-03-15T17:15:47.008Z,0.68
2023-03-15T17:18:34.201Z,0.50
2023-03-15T17:21:30.885Z,0.50
2023-03-15T17:24:15.880Z,0.85
2023-03-15T17:27:07.898Z,0.95
2023-03-15T17:29:55.876Z,0.70
2023-03-15T17:32:48.984Z,0.70
2023-03-15T17:35:38.230Z,0.93
2023-03-15T17:38:38.108Z,0.90
2023-03-15T17:41:35.076Z,0.90
2023-03-15T17:44:19.941Z,0.80
2023-03-15T17:47:13.002Z,1.00
2023-03-15T17:49:58.302Z,0.77
2023-03-15T17:52:51.003Z,0.98
2023-03-15T17:55:43.912Z,1.08
2023-03-15T18:01:46.277Z,0.93
2023-03-15T18:04:40.901Z,1.13
2023-03-15T18:07:32.124Z,1.42
2023-03-15T18:10:26.911Z,1.10
2023-03-15T18:13:26.914Z,1.25
2023-03-15T18:16:14.744Z,1.50
2023-03-15T18:19:05.910Z,2.20
2023-03-15T18:21:50.489Z,2.22
2023-03-15T18:24:42.012Z,2.80
2023-03-15T18:27:27.273Z,2.40
2023-03-15T18:30:20.950Z,1.42
2023-03-15T18:33:06.014Z,1.53
2023-03-15T18:36:04.048Z,1.83
2023-03-15T18:38:48.952Z,1.20
2023-03-15T18:41:40.906Z,1.52
2023-03-15T18:44:25.650Z,1.17
2023-03-15T18:47:17.967Z,1.40
2023-03-15T18:50:10.600Z,1.30
2023-03-15T18:53:05.982Z,1.40
2023-03-15T18:55:51.952Z,1.40
2023-03-15T18:58:42.896Z,1.75
2023-03-15T19:01:34.935Z,3.10
2023-03-15T19:04:20.128Z,3.83
2023-03-15T19:07:18.913Z,3.38
2023-03-15T19:10:21.915Z,2.63
2023-03-15T19:13:07.248Z,2.40
2023-03-15T19:15:58.938Z,2.50
2023-03-15T19:18:44.030Z,2.08
2023-03-15T19:21:35.922Z,2.17
2023-03-15T19:27:41.966Z,2.15
2023-03-15T19:30:27.429Z,1.80
2023-03-15T19:36:25.691Z,2.40
2023-03-15T19:39:18.918Z,2.40
2023-03-15T19:42:04.106Z,3.75
2023-03-15T19:48:10.930Z,3.20
2023-03-15T19:51:07.912Z,2.80
2023-03-15T19:57:05.291Z,3.38
2023-03-15T19:59:58.960Z,3.00
2023-03-15T20:02:47.807Z,2.80
2023-03-15T20:09:00.927Z,2.92
2023-03-15T20:15:05.928Z,2.50
2023-03-15T20:18:00.949Z,2.90
2023-03-15T20:20:55.925Z,2.90
2023-03-15T20:23:41.631Z,2.45
2023-03-15T20:29:45.933Z,2.53
2023-03-15T20:32:38.942Z,2.63
2023-03-15T20:35:23.738Z,3.10
2023-03-15T20:38:16.908Z,2.42
2023-03-15T20:41:01.939Z,2.53
2023-03-15T20:43:54.929Z,2.60
2023-03-15T20:46:47.007Z,2.45
2023-03-15T20:49:32.003Z,2.20
2023-03-15T20:52:22.941Z,2.35
2023-03-15T20:55:15.937Z,2.05
2023-03-15T20:58:00.886Z,2.23
2023-03-15T21:00:51.981Z,2.35
2023-03-15T21:03:37.352Z,2.60
2023-03-15T21:06:35.948Z,2.50
2023-03-15T21:09:27.977Z,2.33
2023-03-15T21:12:19.941Z,2.30
2023-03-15T21:15:13.924Z,2.72
2023-03-15T21:18:04.917Z,2.80
2023-03-15T21:20:58.100Z,3.10
2023-03-15T21:23:48.945Z,2.97
2023-03-15T21:26:33.785Z,2.60
2023-03-15T21:29:25.936Z,3.15
2023-03-15T21:32:17.962Z,2.80
2023-03-15T21:35:10.924Z,2.88
2023-03-15T21:38:02.935Z,2.75
2023-03-15T21:40:57.753Z,2.90
2023-03-15T21:43:49.917Z,2.85
2023-03-15T21:46:35.094Z,3.13
2023-03-15T21:49:26.906Z,2.53
2023-03-15T21:52:12.382Z,2.95
2023-03-15T21:55:03.926Z,2.47
2023-03-15T21:57:49.041Z,2.95
2023-03-15T22:00:40.927Z,3.05
2023-03-15T22:03:27.204Z,3.92
2023-03-15T22:06:18.934Z,3.53
2023-03-15T22:09:10.076Z,3.40
2023-03-15T22:12:01.932Z,3.55
2023-03-15T22:14:51.584Z,4.43
2023-03-15T22:17:45.940Z,3.28
2023-03-15T22:20:31.163Z,2.13
2023-03-15T22:23:22.904Z,2.07
2023-03-15T22:26:07.665Z,2.45
2023-03-15T22:28:58.916Z,2.60
2023-03-15T22:31:43.751Z,2.80
2023-03-15T22:34:34.937Z,2.70
2023-03-15T22:37:19.858Z,2.97
2023-03-15T22:40:12.930Z,3.88
2023-03-15T22:42:59.504Z,7.38
2023-03-15T22:45:50.958Z,4.65
2023-03-15T22:48:36.048Z,3.90
2023-03-15T22:51:27.947Z,2.80
2023-03-15T22:54:12.789Z,2.97
2023-03-15T22:57:03.949Z,2.60
2023-03-15T22:59:54.950Z,2.00
2023-03-15T23:02:41.328Z,2.53
2023-03-15T23:05:32.947Z,2.50
2023-03-15T23:08:24.123Z,2.80
2023-03-15T23:11:15.954Z,2.67
2023-03-15T23:14:00.790Z,2.67
2023-03-15T23:16:51.953Z,2.30
2023-03-15T23:19:43.982Z,2.50
2023-03-15T23:22:29.433Z,2.88
2023-03-15T23:25:23.955Z,2.95
2023-03-15T23:28:09.166Z,2.95
2023-03-15T23:31:01.060Z,2.70
2023-03-15T23:33:48.361Z,1.67
2023-03-15T23:36:41.739Z,1.70
2023-03-15T23:39:35.955Z,2.20
2023-03-15T23:42:25.556Z,2.05
2023-03-15T23:45:18.946Z,2.35
2023-03-15T23:48:10.977Z,2.10
2023-03-15T23:51:04.960Z,2.38
2023-03-15T23:53:49.881Z,2.33
2023-03-15T23:56:40.960Z,2.00
2023-03-15T23:59:25.958Z,1.73
